OMDB/DXB METAR and TAF weather

Enter ICAO airport designator
Station Type Date Time Source
OMDB METAR 2021/03/07 08:00 UTC NOAA

OMDB 070800Z 29012KT 250V320 9999 FEW030 24/14 Q1015 NOSIG


Station Type Date Time Source
OMDB Decoded METAR 2021/03/07 08:00 UTC NOAA

Dubai International Airport, United Arab Emirates (OMDB) 25-15N 055-20E 5M
Mar 07, 2021 - 03:00 AM EST / 2021.03.07 0800 UTC
Wind: from the WNW (290 degrees) at 14 MPH (12 KT) (direction variable):0
Visibility: greater than 7 mile(s):0
Sky conditions: mostly clear
Temperature: 75 F (24 C)
Dew Point: 57 F (14 C)
Relative Humidity: 53%
Pressure (altimeter): 29.97 in. Hg (1015 hPa)
ob: OMDB 070800Z 29012KT 250V320 9999 FEW030 24/14 Q1015 NOSIG
cycle: 8

Station Type Date Time Source
OMDB TAF 2021/03/07 06:06 UTC NOAA

TAF OMDB 070500Z 0706/0812 28014KT 9999 SCT025
BECMG 0716/0718 20005KT PROB30
TEMPO 0720/0805 BKN012
BECMG 0806/0808 28010KT

Example: see airport list